sensor_id;sensor_type;location;lat;lon;timestamp;P1;durP1;ratioP1;P2;durP2;ratioP2
48651;SDS011;34442;52.362;-1.302;2022-08-14T00:00:07;1.30;;;0.88;;
48651;SDS011;34442;52.362;-1.302;2022-08-14T00:02:36;3.05;;;1.10;;
48651;SDS011;34442;52.362;-1.302;2022-08-14T00:05:02;1.60;;;0.90;;
48651;SDS011;34442;52.362;-1.302;2022-08-14T00:07:29;2.30;;;0.95;;
48651;SDS011;34442;52.362;-1.302;2022-08-14T00:09:55;1.75;;;1.00;;
48651;SDS011;34442;52.362;-1.302;2022-08-14T00:12:21;2.75;;;1.08;;
48651;SDS011;34442;52.362;-1.302;2022-08-14T00:14:48;1.27;;;0.80;;
48651;SDS011;34442;52.362;-1.302;2022-08-14T00:17:14;1.17;;;0.85;;
48651;SDS011;34442;52.362;-1.302;2022-08-14T00:19:40;3.47;;;1.10;;
48651;SDS011;34442;52.362;-1.302;2022-08-14T00:22:06;1.10;;;0.90;;
48651;SDS011;34442;52.362;-1.302;2022-08-14T00:24:32;1.25;;;1.05;;
48651;SDS011;34442;52.362;-1.302;2022-08-14T00:26:58;1.83;;;1.10;;
48651;SDS011;34442;52.362;-1.302;2022-08-14T00:29:24;1.88;;;1.00;;
48651;SDS011;34442;52.362;-1.302;2022-08-14T00:31:51;1.52;;;0.98;;
48651;SDS011;34442;52.362;-1.302;2022-08-14T00:34:17;1.70;;;0.90;;
48651;SDS011;34442;52.362;-1.302;2022-08-14T00:36:43;1.52;;;0.80;;
48651;SDS011;34442;52.362;-1.302;2022-08-14T00:39:12;1.25;;;0.82;;
48651;SDS011;34442;52.362;-1.302;2022-08-14T00:41:39;2.67;;;1.33;;
48651;SDS011;34442;52.362;-1.302;2022-08-14T00:44:06;1.45;;;0.88;;
48651;SDS011;34442;52.362;-1.302;2022-08-14T00:46:32;1.23;;;0.80;;
48651;SDS011;34442;52.362;-1.302;2022-08-14T00:48:58;1.90;;;1.20;;
48651;SDS011;34442;52.362;-1.302;2022-08-14T00:51:25;1.83;;;0.90;;
48651;SDS011;34442;52.362;-1.302;2022-08-14T00:53:57;1.38;;;0.80;;
48651;SDS011;34442;52.362;-1.302;2022-08-14T00:56:24;0.95;;;0.77;;
48651;SDS011;34442;52.362;-1.302;2022-08-14T00:58:50;1.23;;;0.90;;
48651;SDS011;34442;52.362;-1.302;2022-08-14T01:01:19;1.70;;;0.93;;
48651;SDS011;34442;52.362;-1.302;2022-08-14T01:03:45;1.13;;;0.73;;
48651;SDS011;34442;52.362;-1.302;2022-08-14T01:06:13;0.60;;;0.60;;
48651;SDS011;34442;52.362;-1.302;2022-08-14T01:08:41;0.95;;;0.80;;
48651;SDS011;34442;52.362;-1.302;2022-08-14T01:11:09;1.70;;;0.90;;
48651;SDS011;34442;52.362;-1.302;2022-08-14T01:13:41;0.93;;;0.70;;
48651;SDS011;34442;52.362;-1.302;2022-08-14T01:16:10;1.80;;;0.68;;
48651;SDS011;34442;52.362;-1.302;2022-08-14T01:18:38;0.90;;;0.73;;
48651;SDS011;34442;52.362;-1.302;2022-08-14T01:21:24;1.67;;;1.08;;
48651;SDS011;34442;52.362;-1.302;2022-08-14T01:23:57;1.05;;;0.75;;
48651;SDS011;34442;52.362;-1.302;2022-08-14T01:26:24;1.83;;;1.00;;
48651;SDS011;34442;52.362;-1.302;2022-08-14T01:28:52;0.90;;;0.75;;
48651;SDS011;34442;52.362;-1.302;2022-08-14T01:31:21;1.42;;;0.60;;
48651;SDS011;34442;52.362;-1.302;2022-08-14T01:33:58;1.85;;;0.80;;
48651;SDS011;34442;52.362;-1.302;2022-08-14T01:36:26;1.00;;;0.80;;
48651;SDS011;34442;52.362;-1.302;2022-08-14T01:39:01;1.10;;;0.80;;
48651;SDS011;34442;52.362;-1.302;2022-08-14T01:41:33;1.15;;;0.75;;
48651;SDS011;34442;52.362;-1.302;2022-08-14T01:44:02;1.10;;;0.80;;
48651;SDS011;34442;52.362;-1.302;2022-08-14T01:46:35;0.95;;;0.70;;
48651;SDS011;34442;52.362;-1.302;2022-08-14T01:49:06;2.25;;;0.85;;
48651;SDS011;34442;52.362;-1.302;2022-08-14T01:51:36;0.63;;;0.63;;
48651;SDS011;34442;52.362;-1.302;2022-08-14T01:54:05;0.85;;;0.70;;
48651;SDS011;34442;52.362;-1.302;2022-08-14T01:56:37;2.25;;;0.90;;
48651;SDS011;34442;52.362;-1.302;2022-08-14T01:59:07;1.45;;;0.93;;
48651;SDS011;34442;52.362;-1.302;2022-08-14T02:01:40;1.77;;;1.00;;
48651;SDS011;34442;52.362;-1.302;2022-08-14T02:04:08;1.15;;;0.80;;
48651;SDS011;34442;52.362;-1.302;2022-08-14T02:06:35;1.95;;;0.80;;
48651;SDS011;34442;52.362;-1.302;2022-08-14T02:09:03;1.08;;;0.90;;
48651;SDS011;34442;52.362;-1.302;2022-08-14T02:11:30;1.58;;;0.70;;
48651;SDS011;34442;52.362;-1.302;2022-08-14T02:13:57;0.85;;;0.70;;
48651;SDS011;34442;52.362;-1.302;2022-08-14T02:16:28;1.05;;;0.80;;
48651;SDS011;34442;52.362;-1.302;2022-08-14T02:18:58;1.20;;;0.80;;
48651;SDS011;34442;52.362;-1.302;2022-08-14T02:21:27;0.80;;;0.80;;
48651;SDS011;34442;52.362;-1.302;2022-08-14T02:23:58;0.70;;;0.70;;
48651;SDS011;34442;52.362;-1.302;2022-08-14T02:26:27;1.60;;;0.88;;
48651;SDS011;34442;52.362;-1.302;2022-08-14T02:28:56;0.98;;;0.65;;
48651;SDS011;34442;52.362;-1.302;2022-08-14T02:31:26;0.93;;;0.70;;
48651;SDS011;34442;52.362;-1.302;2022-08-14T02:33:58;0.80;;;0.60;;
48651;SDS011;34442;52.362;-1.302;2022-08-14T02:36:25;1.23;;;0.90;;
48651;SDS011;34442;52.362;-1.302;2022-08-14T02:38:51;2.63;;;1.08;;
48651;SDS011;34442;52.362;-1.302;2022-08-14T02:41:18;1.83;;;0.93;;
48651;SDS011;34442;52.362;-1.302;2022-08-14T02:43:44;1.60;;;1.00;;
48651;SDS011;34442;52.362;-1.302;2022-08-14T02:46:10;1.67;;;1.20;;
48651;SDS011;34442;52.362;-1.302;2022-08-14T02:48:37;2.28;;;1.27;;
48651;SDS011;34442;52.362;-1.302;2022-08-14T02:51:10;1.33;;;1.00;;
48651;SDS011;34442;52.362;-1.302;2022-08-14T02:53:42;1.80;;;1.20;;
48651;SDS011;34442;52.362;-1.302;2022-08-14T02:56:10;2.88;;;1.30;;
48651;SDS011;34442;52.362;-1.302;2022-08-14T02:58:46;2.25;;;1.23;;
48651;SDS011;34442;52.362;-1.302;2022-08-14T03:01:14;2.40;;;1.00;;
48651;SDS011;34442;52.362;-1.302;2022-08-14T03:03:42;2.38;;;1.27;;
48651;SDS011;34442;52.362;-1.302;2022-08-14T03:06:09;1.48;;;0.90;;
48651;SDS011;34442;52.362;-1.302;2022-08-14T03:08:38;2.00;;;1.27;;
48651;SDS011;34442;52.362;-1.302;2022-08-14T03:11:07;1.85;;;1.20;;
48651;SDS011;34442;52.362;-1.302;2022-08-14T03:13:35;2.95;;;1.38;;
48651;SDS011;34442;52.362;-1.302;2022-08-14T03:16:06;1.75;;;1.13;;
48651;SDS011;34442;52.362;-1.302;2022-08-14T03:18:36;3.05;;;1.10;;
48651;SDS011;34442;52.362;-1.302;2022-08-14T03:21:06;2.08;;;1.23;;
48651;SDS011;34442;52.362;-1.302;2022-08-14T03:23:32;1.48;;;0.90;;
48651;SDS011;34442;52.362;-1.302;2022-08-14T03:26:00;2.38;;;1.30;;
48651;SDS011;34442;52.362;-1.302;2022-08-14T03:28:28;2.17;;;1.35;;
48651;SDS011;34442;52.362;-1.302;2022-08-14T03:30:55;2.40;;;1.15;;
48651;SDS011;34442;52.362;-1.302;2022-08-14T03:33:22;2.35;;;1.10;;
48651;SDS011;34442;52.362;-1.302;2022-08-14T03:35:48;2.75;;;1.30;;
48651;SDS011;34442;52.362;-1.302;2022-08-14T03:38:15;1.88;;;1.13;;
48651;SDS011;34442;52.362;-1.302;2022-08-14T03:40:43;2.83;;;1.30;;
48651;SDS011;34442;52.362;-1.302;2022-08-14T03:43:11;2.45;;;1.33;;
48651;SDS011;34442;52.362;-1.302;2022-08-14T03:45:38;2.58;;;1.65;;
48651;SDS011;34442;52.362;-1.302;2022-08-14T03:48:12;2.22;;;1.40;;
48651;SDS011;34442;52.362;-1.302;2022-08-14T03:50:49;1.88;;;1.20;;
48651;SDS011;34442;52.362;-1.302;2022-08-14T03:53:17;2.13;;;1.30;;
48651;SDS011;34442;52.362;-1.302;2022-08-14T03:55:45;3.00;;;1.60;;
48651;SDS011;34442;52.362;-1.302;2022-08-14T03:58:11;2.92;;;1.40;;
48651;SDS011;34442;52.362;-1.302;2022-08-14T04:00:39;2.28;;;1.30;;
48651;SDS011;34442;52.362;-1.302;2022-08-14T04:03:07;3.30;;;1.55;;
48651;SDS011;34442;52.362;-1.302;2022-08-14T04:05:35;2.75;;;1.50;;
48651;SDS011;34442;52.362;-1.302;2022-08-14T04:08:04;2.70;;;1.45;;
48651;SDS011;34442;52.362;-1.302;2022-08-14T04:10:30;2.92;;;1.30;;
48651;SDS011;34442;52.362;-1.302;2022-08-14T04:12:56;2.45;;;1.45;;
48651;SDS011;34442;52.362;-1.302;2022-08-14T04:15:25;2.35;;;1.30;;
48651;SDS011;34442;52.362;-1.302;2022-08-14T04:17:52;3.13;;;1.60;;
48651;SDS011;34442;52.362;-1.302;2022-08-14T04:20:19;2.67;;;1.55;;
48651;SDS011;34442;52.362;-1.302;2022-08-14T04:22:46;1.88;;;1.27;;
48651;SDS011;34442;52.362;-1.302;2022-08-14T04:25:13;2.67;;;1.33;;
48651;SDS011;34442;52.362;-1.302;2022-08-14T04:27:39;2.47;;;1.60;;
48651;SDS011;34442;52.362;-1.302;2022-08-14T04:30:05;2.13;;;1.20;;
48651;SDS011;34442;52.362;-1.302;2022-08-14T04:32:32;1.73;;;1.20;;
48651;SDS011;34442;52.362;-1.302;2022-08-14T04:34:59;1.95;;;1.20;;
48651;SDS011;34442;52.362;-1.302;2022-08-14T04:37:26;2.58;;;1.30;;
48651;SDS011;34442;52.362;-1.302;2022-08-14T04:40:11;1.83;;;1.30;;
48651;SDS011;34442;52.362;-1.302;2022-08-14T04:42:56;2.42;;;1.38;;
48651;SDS011;34442;52.362;-1.302;2022-08-14T04:45:41;2.35;;;1.40;;
48651;SDS011;34442;52.362;-1.302;2022-08-14T04:48:13;2.28;;;1.30;;
48651;SDS011;34442;52.362;-1.302;2022-08-14T04:50:42;2.38;;;1.30;;
48651;SDS011;34442;52.362;-1.302;2022-08-14T04:53:11;1.65;;;1.17;;
48651;SDS011;34442;52.362;-1.302;2022-08-14T04:55:42;1.83;;;1.30;;
48651;SDS011;34442;52.362;-1.302;2022-08-14T04:58:15;2.35;;;1.38;;
48651;SDS011;34442;52.362;-1.302;2022-08-14T05:00:46;2.22;;;1.27;;
48651;SDS011;34442;52.362;-1.302;2022-08-14T05:03:16;2.00;;;1.20;;
48651;SDS011;34442;52.362;-1.302;2022-08-14T05:05:50;1.95;;;1.20;;
48651;SDS011;34442;52.362;-1.302;2022-08-14T05:08:17;2.88;;;1.40;;
48651;SDS011;34442;52.362;-1.302;2022-08-14T05:10:45;1.77;;;1.27;;
48651;SDS011;34442;52.362;-1.302;2022-08-14T05:13:20;2.67;;;1.40;;
48651;SDS011;34442;52.362;-1.302;2022-08-14T05:15:48;2.47;;;1.52;;
48651;SDS011;34442;52.362;-1.302;2022-08-14T05:18:18;1.98;;;1.50;;
48651;SDS011;34442;52.362;-1.302;2022-08-14T05:20:48;2.78;;;1.50;;
48651;SDS011;34442;52.362;-1.302;2022-08-14T05:23:18;2.67;;;1.55;;
48651;SDS011;34442;52.362;-1.302;2022-08-14T05:25:45;2.42;;;1.30;;
48651;SDS011;34442;52.362;-1.302;2022-08-14T05:28:14;2.00;;;1.33;;
48651;SDS011;34442;52.362;-1.302;2022-08-14T05:30:45;2.47;;;1.55;;
48651;SDS011;34442;52.362;-1.302;2022-08-14T05:33:13;2.88;;;1.40;;
48651;SDS011;34442;52.362;-1.302;2022-08-14T05:35:41;2.80;;;1.67;;
48651;SDS011;34442;52.362;-1.302;2022-08-14T05:38:09;1.92;;;1.33;;
48651;SDS011;34442;52.362;-1.302;2022-08-14T05:40:39;2.28;;;1.35;;
48651;SDS011;34442;52.362;-1.302;2022-08-14T05:43:06;2.38;;;1.30;;
48651;SDS011;34442;52.362;-1.302;2022-08-14T05:45:32;2.22;;;1.30;;
48651;SDS011;34442;52.362;-1.302;2022-08-14T05:48:00;2.45;;;1.27;;
48651;SDS011;34442;52.362;-1.302;2022-08-14T05:50:27;2.13;;;1.25;;
48651;SDS011;34442;52.362;-1.302;2022-08-14T05:52:54;2.35;;;1.27;;
48651;SDS011;34442;52.362;-1.302;2022-08-14T05:55:20;1.73;;;1.20;;
48651;SDS011;34442;52.362;-1.302;2022-08-14T06:00:22;1.02;;;0.95;;
48651;SDS011;34442;52.362;-1.302;2022-08-14T06:02:50;1.92;;;1.15;;
48651;SDS011;34442;52.362;-1.302;2022-08-14T06:05:16;1.25;;;1.10;;
48651;SDS011;34442;52.362;-1.302;2022-08-14T06:07:42;2.38;;;1.38;;
48651;SDS011;34442;52.362;-1.302;2022-08-14T06:10:08;2.67;;;1.50;;
48651;SDS011;34442;52.362;-1.302;2022-08-14T06:12:36;2.85;;;1.92;;
48651;SDS011;34442;52.362;-1.302;2022-08-14T06:15:03;2.25;;;1.40;;
48651;SDS011;34442;52.362;-1.302;2022-08-14T06:17:30;3.45;;;1.60;;
48651;SDS011;34442;52.362;-1.302;2022-08-14T06:19:56;2.95;;;1.63;;
48651;SDS011;34442;52.362;-1.302;2022-08-14T06:22:22;2.63;;;1.42;;
48651;SDS011;34442;52.362;-1.302;2022-08-14T06:24:48;2.65;;;1.58;;
48651;SDS011;34442;52.362;-1.302;2022-08-14T06:27:14;3.45;;;1.70;;
48651;SDS011;34442;52.362;-1.302;2022-08-14T06:29:41;1.85;;;1.30;;
48651;SDS011;34442;52.362;-1.302;2022-08-14T06:32:07;2.78;;;1.45;;
48651;SDS011;34442;52.362;-1.302;2022-08-14T06:34:33;2.17;;;1.40;;
48651;SDS011;34442;52.362;-1.302;2022-08-14T06:37:03;2.70;;;1.58;;
48651;SDS011;34442;52.362;-1.302;2022-08-14T06:39:29;3.03;;;1.85;;
48651;SDS011;34442;52.362;-1.302;2022-08-14T06:41:55;2.78;;;1.65;;
48651;SDS011;34442;52.362;-1.302;2022-08-14T06:44:21;2.53;;;1.38;;
48651;SDS011;34442;52.362;-1.302;2022-08-14T06:46:47;3.25;;;1.42;;
48651;SDS011;34442;52.362;-1.302;2022-08-14T06:49:13;1.85;;;1.40;;
48651;SDS011;34442;52.362;-1.302;2022-08-14T06:51:39;2.67;;;1.42;;
48651;SDS011;34442;52.362;-1.302;2022-08-14T06:54:11;1.90;;;1.30;;
48651;SDS011;34442;52.362;-1.302;2022-08-14T06:56:38;2.85;;;1.40;;
48651;SDS011;34442;52.362;-1.302;2022-08-14T06:59:04;2.05;;;1.40;;
48651;SDS011;34442;52.362;-1.302;2022-08-14T07:01:30;3.15;;;1.60;;
48651;SDS011;34442;52.362;-1.302;2022-08-14T07:04:15;2.13;;;1.20;;
48651;SDS011;34442;52.362;-1.302;2022-08-14T07:06:59;3.13;;;1.50;;
48651;SDS011;34442;52.362;-1.302;2022-08-14T07:09:26;2.47;;;1.30;;
48651;SDS011;34442;52.362;-1.302;2022-08-14T07:11:53;2.17;;;1.10;;
48651;SDS011;34442;52.362;-1.302;2022-08-14T07:14:20;2.05;;;1.35;;
48651;SDS011;34442;52.362;-1.302;2022-08-14T07:16:46;1.85;;;1.23;;
48651;SDS011;34442;52.362;-1.302;2022-08-14T07:19:15;2.38;;;1.35;;
48651;SDS011;34442;52.362;-1.302;2022-08-14T07:21:42;1.63;;;1.05;;
48651;SDS011;34442;52.362;-1.302;2022-08-14T07:24:08;1.60;;;0.98;;
48651;SDS011;34442;52.362;-1.302;2022-08-14T07:26:34;2.13;;;1.13;;
48651;SDS011;34442;52.362;-1.302;2022-08-14T07:29:00;1.77;;;1.10;;
48651;SDS011;34442;52.362;-1.302;2022-08-14T07:31:26;1.63;;;1.05;;
48651;SDS011;34442;52.362;-1.302;2022-08-14T07:33:52;1.58;;;1.20;;
48651;SDS011;34442;52.362;-1.302;2022-08-14T07:36:19;1.63;;;1.02;;
48651;SDS011;34442;52.362;-1.302;2022-08-14T07:38:46;1.63;;;1.10;;
48651;SDS011;34442;52.362;-1.302;2022-08-14T07:41:12;1.77;;;1.15;;
48651;SDS011;34442;52.362;-1.302;2022-08-14T07:43:38;1.98;;;1.30;;
48651;SDS011;34442;52.362;-1.302;2022-08-14T07:46:05;2.30;;;1.20;;
48651;SDS011;34442;52.362;-1.302;2022-08-14T07:48:36;1.45;;;1.13;;
48651;SDS011;34442;52.362;-1.302;2022-08-14T07:51:04;2.40;;;1.50;;
48651;SDS011;34442;52.362;-1.302;2022-08-14T07:53:30;2.45;;;1.30;;
48651;SDS011;34442;52.362;-1.302;2022-08-14T07:55:56;1.58;;;1.05;;
48651;SDS011;34442;52.362;-1.302;2022-08-14T07:58:23;1.58;;;1.10;;
48651;SDS011;34442;52.362;-1.302;2022-08-14T08:00:51;1.52;;;1.02;;
48651;SDS011;34442;52.362;-1.302;2022-08-14T08:03:19;2.47;;;1.17;;
48651;SDS011;34442;52.362;-1.302;2022-08-14T08:05:47;0.95;;;0.80;;
48651;SDS011;34442;52.362;-1.302;2022-08-14T08:08:13;0.82;;;0.80;;
48651;SDS011;34442;52.362;-1.302;2022-08-14T08:10:41;1.10;;;0.80;;
48651;SDS011;34442;52.362;-1.302;2022-08-14T08:15:38;1.65;;;1.05;;
48651;SDS011;34442;52.362;-1.302;2022-08-14T08:18:09;1.65;;;0.93;;
48651;SDS011;34442;52.362;-1.302;2022-08-14T08:20:42;1.92;;;1.17;;
48651;SDS011;34442;52.362;-1.302;2022-08-14T08:23:11;2.10;;;1.30;;
48651;SDS011;34442;52.362;-1.302;2022-08-14T08:25:39;1.63;;;1.10;;
48651;SDS011;34442;52.362;-1.302;2022-08-14T08:28:17;1.75;;;1.25;;
48651;SDS011;34442;52.362;-1.302;2022-08-14T08:30:51;1.30;;;0.90;;
48651;SDS011;34442;52.362;-1.302;2022-08-14T08:33:19;1.08;;;0.88;;
48651;SDS011;34442;52.362;-1.302;2022-08-14T08:35:46;2.05;;;1.10;;
48651;SDS011;34442;52.362;-1.302;2022-08-14T08:38:13;0.80;;;0.80;;
48651;SDS011;34442;52.362;-1.302;2022-08-14T08:40:46;1.63;;;1.02;;
48651;SDS011;34442;52.362;-1.302;2022-08-14T08:43:21;1.58;;;1.00;;
48651;SDS011;34442;52.362;-1.302;2022-08-14T08:45:52;2.45;;;1.30;;
48651;SDS011;34442;52.362;-1.302;2022-08-14T08:48:22;4.60;;;1.30;;
48651;SDS011;34442;52.362;-1.302;2022-08-14T08:50:54;1.80;;;1.25;;
48651;SDS011;34442;52.362;-1.302;2022-08-14T08:53:28;1.83;;;1.10;;
48651;SDS011;34442;52.362;-1.302;2022-08-14T08:55:56;1.55;;;0.95;;
48651;SDS011;34442;52.362;-1.302;2022-08-14T08:58:23;1.33;;;1.00;;
48651;SDS011;34442;52.362;-1.302;2022-08-14T09:00:53;1.55;;;1.00;;
48651;SDS011;34442;52.362;-1.302;2022-08-14T09:03:24;3.33;;;1.27;;
48651;SDS011;34442;52.362;-1.302;2022-08-14T09:05:55;2.72;;;1.30;;
48651;SDS011;34442;52.362;-1.302;2022-08-14T09:08:28;3.00;;;1.50;;
48651;SDS011;34442;52.362;-1.302;2022-08-14T09:10:56;2.53;;;1.23;;
48651;SDS011;34442;52.362;-1.302;2022-08-14T09:13:24;3.17;;;1.20;;
48651;SDS011;34442;52.362;-1.302;2022-08-14T09:15:51;2.28;;;1.35;;
48651;SDS011;34442;52.362;-1.302;2022-08-14T09:18:19;1.75;;;1.13;;
48651;SDS011;34442;52.362;-1.302;2022-08-14T09:20:47;2.75;;;1.35;;
48651;SDS011;34442;52.362;-1.302;2022-08-14T09:23:17;1.55;;;1.10;;
48651;SDS011;34442;52.362;-1.302;2022-08-14T09:25:45;2.17;;;1.20;;
48651;SDS011;34442;52.362;-1.302;2022-08-14T09:28:12;2.80;;;1.30;;
48651;SDS011;34442;52.362;-1.302;2022-08-14T09:30:40;1.65;;;1.13;;
48651;SDS011;34442;52.362;-1.302;2022-08-14T09:36:06;3.47;;;1.40;;
48651;SDS011;34442;52.362;-1.302;2022-08-14T09:44:41;2.30;;;1.20;;
48651;SDS011;34442;52.362;-1.302;2022-08-14T09:47:12;3.30;;;1.40;;
48651;SDS011;34442;52.362;-1.302;2022-08-14T09:49:41;1.65;;;1.00;;
48651;SDS011;34442;52.362;-1.302;2022-08-14T09:52:08;1.80;;;1.17;;
48651;SDS011;34442;52.362;-1.302;2022-08-14T09:54:43;2.05;;;1.25;;
48651;SDS011;34442;52.362;-1.302;2022-08-14T09:57:23;2.00;;;1.27;;
48651;SDS011;34442;52.362;-1.302;2022-08-14T09:59:55;1.80;;;1.17;;
48651;SDS011;34442;52.362;-1.302;2022-08-14T10:02:22;2.55;;;1.10;;
48651;SDS011;34442;52.362;-1.302;2022-08-14T10:04:59;1.40;;;1.00;;
48651;SDS011;34442;52.362;-1.302;2022-08-14T10:07:56;1.60;;;1.10;;
48651;SDS011;34442;52.362;-1.302;2022-08-14T10:13:05;1.92;;;1.10;;
48651;SDS011;34442;52.362;-1.302;2022-08-14T10:15:36;1.48;;;1.05;;
48651;SDS011;34442;52.362;-1.302;2022-08-14T10:18:11;2.05;;;1.10;;
48651;SDS011;34442;52.362;-1.302;2022-08-14T10:20:42;1.83;;;0.98;;
48651;SDS011;34442;52.362;-1.302;2022-08-14T10:23:17;2.05;;;1.10;;
48651;SDS011;34442;52.362;-1.302;2022-08-14T10:25:46;1.13;;;0.90;;
48651;SDS011;34442;52.362;-1.302;2022-08-14T10:28:17;1.50;;;0.90;;
48651;SDS011;34442;52.362;-1.302;2022-08-14T10:30:45;1.42;;;1.10;;
48651;SDS011;34442;52.362;-1.302;2022-08-14T10:33:28;2.05;;;1.40;;
48651;SDS011;34442;52.362;-1.302;2022-08-14T10:35:57;2.65;;;1.38;;
48651;SDS011;34442;52.362;-1.302;2022-08-14T10:38:26;2.13;;;1.15;;
48651;SDS011;34442;52.362;-1.302;2022-08-14T10:40:53;1.02;;;0.90;;
48651;SDS011;34442;52.362;-1.302;2022-08-14T10:43:20;1.60;;;1.00;;
48651;SDS011;34442;52.362;-1.302;2022-08-14T10:45:52;1.27;;;0.90;;
48651;SDS011;34442;52.362;-1.302;2022-08-14T10:48:23;0.70;;;0.63;;
48651;SDS011;34442;52.362;-1.302;2022-08-14T10:50:49;1.95;;;1.08;;
48651;SDS011;34442;52.362;-1.302;2022-08-14T10:53:27;1.77;;;1.00;;
48651;SDS011;34442;52.362;-1.302;2022-08-14T10:55:59;1.38;;;1.00;;
48651;SDS011;34442;52.362;-1.302;2022-08-14T10:58:27;2.50;;;0.93;;
48651;SDS011;34442;52.362;-1.302;2022-08-14T11:00:55;0.98;;;0.90;;
48651;SDS011;34442;52.362;-1.302;2022-08-14T11:03:23;1.88;;;1.00;;
48651;SDS011;34442;52.362;-1.302;2022-08-14T11:05:50;1.95;;;1.20;;
48651;SDS011;34442;52.362;-1.302;2022-08-14T11:08:17;1.88;;;0.95;;
48651;SDS011;34442;52.362;-1.302;2022-08-14T11:10:57;1.80;;;1.20;;
48651;SDS011;34442;52.362;-1.302;2022-08-14T11:13:27;1.38;;;0.95;;
48651;SDS011;34442;52.362;-1.302;2022-08-14T11:15:55;1.25;;;0.90;;
48651;SDS011;34442;52.362;-1.302;2022-08-14T11:18:25;1.50;;;0.88;;
48651;SDS011;34442;52.362;-1.302;2022-08-14T11:20:53;1.80;;;1.08;;
48651;SDS011;34442;52.362;-1.302;2022-08-14T11:23:21;1.50;;;1.00;;
48651;SDS011;34442;52.362;-1.302;2022-08-14T11:25:52;1.70;;;1.20;;
48651;SDS011;34442;52.362;-1.302;2022-08-14T11:28:21;2.30;;;1.10;;
48651;SDS011;34442;52.362;-1.302;2022-08-14T11:30:49;1.95;;;1.17;;
48651;SDS011;34442;52.362;-1.302;2022-08-14T11:33:17;1.17;;;0.80;;
48651;SDS011;34442;52.362;-1.302;2022-08-14T11:35:47;2.03;;;1.00;;
48651;SDS011;34442;52.362;-1.302;2022-08-14T11:38:14;1.88;;;1.10;;
48651;SDS011;34442;52.362;-1.302;2022-08-14T11:40:41;2.72;;;1.52;;
48651;SDS011;34442;52.362;-1.302;2022-08-14T11:43:08;2.40;;;1.30;;
48651;SDS011;34442;52.362;-1.302;2022-08-14T11:45:35;1.90;;;1.00;;
48651;SDS011;34442;52.362;-1.302;2022-08-14T11:50:45;2.13;;;1.27;;
48651;SDS011;34442;52.362;-1.302;2022-08-14T11:53:22;1.02;;;0.80;;
48651;SDS011;34442;52.362;-1.302;2022-08-14T11:55:53;1.33;;;0.82;;
48651;SDS011;34442;52.362;-1.302;2022-08-14T11:58:24;2.08;;;1.20;;
48651;SDS011;34442;52.362;-1.302;2022-08-14T12:00:54;2.58;;;1.30;;
48651;SDS011;34442;52.362;-1.302;2022-08-14T12:03:34;2.33;;;1.00;;
48651;SDS011;34442;52.362;-1.302;2022-08-14T12:06:13;2.10;;;1.20;;
48651;SDS011;34442;52.362;-1.302;2022-08-14T12:08:42;1.80;;;1.10;;
48651;SDS011;34442;52.362;-1.302;2022-08-14T12:11:10;2.35;;;1.20;;
48651;SDS011;34442;52.362;-1.302;2022-08-14T12:13:40;1.40;;;1.00;;
48651;SDS011;34442;52.362;-1.302;2022-08-14T12:16:08;1.10;;;0.70;;
48651;SDS011;34442;52.362;-1.302;2022-08-14T12:18:43;1.90;;;1.25;;
48651;SDS011;34442;52.362;-1.302;2022-08-14T12:21:20;3.80;;;1.20;;
48651;SDS011;34442;52.362;-1.302;2022-08-14T12:24:09;1.52;;;1.20;;
48651;SDS011;34442;52.362;-1.302;2022-08-14T12:26:35;2.50;;;1.58;;
48651;SDS011;34442;52.362;-1.302;2022-08-14T12:29:05;1.73;;;1.10;;
48651;SDS011;34442;52.362;-1.302;2022-08-14T12:31:36;2.33;;;1.10;;
48651;SDS011;34442;52.362;-1.302;2022-08-14T12:34:04;2.00;;;1.20;;
48651;SDS011;34442;52.362;-1.302;2022-08-14T12:36:33;3.08;;;1.30;;
48651;SDS011;34442;52.362;-1.302;2022-08-14T12:39:01;1.58;;;1.10;;
48651;SDS011;34442;52.362;-1.302;2022-08-14T12:41:47;1.77;;;1.15;;
48651;SDS011;34442;52.362;-1.302;2022-08-14T12:44:17;0.93;;;0.63;;
48651;SDS011;34442;52.362;-1.302;2022-08-14T12:47:00;1.10;;;0.85;;
48651;SDS011;34442;52.362;-1.302;2022-08-14T12:49:31;1.55;;;1.02;;
48651;SDS011;34442;52.362;-1.302;2022-08-14T12:51:58;1.90;;;1.10;;
48651;SDS011;34442;52.362;-1.302;2022-08-14T12:54:25;2.50;;;0.90;;
48651;SDS011;34442;52.362;-1.302;2022-08-14T12:57:01;1.48;;;0.93;;
48651;SDS011;34442;52.362;-1.302;2022-08-14T12:59:29;2.33;;;0.95;;
48651;SDS011;34442;52.362;-1.302;2022-08-14T13:02:01;2.97;;;1.20;;
48651;SDS011;34442;52.362;-1.302;2022-08-14T13:04:27;2.65;;;1.40;;
48651;SDS011;34442;52.362;-1.302;2022-08-14T13:07:01;1.45;;;1.00;;
48651;SDS011;34442;52.362;-1.302;2022-08-14T13:09:31;1.23;;;0.80;;
48651;SDS011;34442;52.362;-1.302;2022-08-14T13:11:57;1.40;;;0.90;;
48651;SDS011;34442;52.362;-1.302;2022-08-14T13:14:28;1.75;;;1.00;;
48651;SDS011;34442;52.362;-1.302;2022-08-14T13:16:58;1.40;;;0.98;;
48651;SDS011;34442;52.362;-1.302;2022-08-14T13:19:26;1.48;;;0.98;;
48651;SDS011;34442;52.362;-1.302;2022-08-14T13:21:55;4.57;;;1.05;;
48651;SDS011;34442;52.362;-1.302;2022-08-14T13:24:22;1.40;;;1.10;;
48651;SDS011;34442;52.362;-1.302;2022-08-14T13:26:50;2.15;;;1.20;;
48651;SDS011;34442;52.362;-1.302;2022-08-14T13:29:22;1.73;;;1.10;;
48651;SDS011;34442;52.362;-1.302;2022-08-14T13:31:51;1.70;;;0.90;;
48651;SDS011;34442;52.362;-1.302;2022-08-14T13:34:23;1.77;;;1.13;;
48651;SDS011;34442;52.362;-1.302;2022-08-14T13:36:51;1.38;;;0.80;;
48651;SDS011;34442;52.362;-1.302;2022-08-14T13:39:19;1.58;;;0.88;;
48651;SDS011;34442;52.362;-1.302;2022-08-14T13:41:46;2.33;;;1.10;;
48651;SDS011;34442;52.362;-1.302;2022-08-14T13:44:13;1.25;;;1.02;;
48651;SDS011;34442;52.362;-1.302;2022-08-14T13:46:41;0.63;;;0.63;;
48651;SDS011;34442;52.362;-1.302;2022-08-14T13:49:09;0.90;;;0.77;;
48651;SDS011;34442;52.362;-1.302;2022-08-14T13:51:37;1.75;;;1.00;;
48651;SDS011;34442;52.362;-1.302;2022-08-14T13:54:05;0.93;;;0.73;;
48651;SDS011;34442;52.362;-1.302;2022-08-14T13:56:35;1.13;;;0.80;;
48651;SDS011;34442;52.362;-1.302;2022-08-14T13:59:03;1.40;;;0.90;;
48651;SDS011;34442;52.362;-1.302;2022-08-14T14:01:31;1.35;;;0.90;;
48651;SDS011;34442;52.362;-1.302;2022-08-14T14:04:02;1.70;;;1.15;;
48651;SDS011;34442;52.362;-1.302;2022-08-14T14:06:29;1.65;;;0.98;;
48651;SDS011;34442;52.362;-1.302;2022-08-14T14:08:57;2.17;;;1.00;;
48651;SDS011;34442;52.362;-1.302;2022-08-14T14:11:24;1.25;;;1.05;;
48651;SDS011;34442;52.362;-1.302;2022-08-14T14:13:54;1.35;;;0.80;;
48651;SDS011;34442;52.362;-1.302;2022-08-14T14:16:22;1.80;;;1.10;;
48651;SDS011;34442;52.362;-1.302;2022-08-14T14:18:49;3.80;;;1.10;;
48651;SDS011;34442;52.362;-1.302;2022-08-14T14:21:21;1.95;;;1.02;;
48651;SDS011;34442;52.362;-1.302;2022-08-14T14:23:48;1.52;;;0.90;;
48651;SDS011;34442;52.362;-1.302;2022-08-14T14:26:18;0.93;;;0.80;;
48651;SDS011;34442;52.362;-1.302;2022-08-14T14:28:49;1.45;;;0.90;;
48651;SDS011;34442;52.362;-1.302;2022-08-14T14:31:20;0.88;;;0.70;;
48651;SDS011;34442;52.362;-1.302;2022-08-14T14:33:53;0.60;;;0.50;;
48651;SDS011;34442;52.362;-1.302;2022-08-14T14:36:22;1.77;;;0.80;;
48651;SDS011;34442;52.362;-1.302;2022-08-14T14:38:52;1.00;;;0.80;;
48651;SDS011;34442;52.362;-1.302;2022-08-14T14:41:21;0.73;;;0.60;;
48651;SDS011;34442;52.362;-1.302;2022-08-14T14:43:48;1.42;;;0.88;;
48651;SDS011;34442;52.362;-1.302;2022-08-14T14:46:19;1.00;;;0.80;;
48651;SDS011;34442;52.362;-1.302;2022-08-14T14:48:47;1.70;;;0.90;;
48651;SDS011;34442;52.362;-1.302;2022-08-14T14:51:13;1.55;;;0.95;;
48651;SDS011;34442;52.362;-1.302;2022-08-14T14:53:41;3.75;;;1.23;;
48651;SDS011;34442;52.362;-1.302;2022-08-14T14:56:08;1.83;;;0.98;;
48651;SDS011;34442;52.362;-1.302;2022-08-14T14:58:35;1.45;;;1.00;;
48651;SDS011;34442;52.362;-1.302;2022-08-14T15:01:04;1.40;;;1.00;;
48651;SDS011;34442;52.362;-1.302;2022-08-14T15:03:32;1.17;;;0.80;;